sensor_id;sensor_type;location;lat;lon;timestamp;P1;durP1;ratioP1;P2;durP2;ratioP2
50495;SDS011;38806;51.554;5.704;2023-06-04T00:01:14;5.45;;;2.63;;
50495;SDS011;38806;51.554;5.704;2023-06-04T00:03:17;5.18;;;1.75;;
50495;SDS011;38806;51.554;5.704;2023-06-04T00:05:18;5.22;;;2.45;;
50495;SDS011;38806;51.554;5.704;2023-06-04T00:07:18;5.32;;;2.00;;
50495;SDS011;38806;51.554;5.704;2023-06-04T00:09:25;6.43;;;2.63;;
50495;SDS011;38806;51.554;5.704;2023-06-04T00:11:25;6.40;;;2.63;;
50495;SDS011;38806;51.554;5.704;2023-06-04T00:13:29;6.97;;;2.22;;
50495;SDS011;38806;51.554;5.704;2023-06-04T00:15:35;6.72;;;2.20;;
50495;SDS011;38806;51.554;5.704;2023-06-04T00:17:42;5.18;;;2.42;;
50495;SDS011;38806;51.554;5.704;2023-06-04T00:19:43;5.22;;;2.33;;
50495;SDS011;38806;51.554;5.704;2023-06-04T00:21:44;4.03;;;1.90;;
50495;SDS011;38806;51.554;5.704;2023-06-04T00:23:44;4.03;;;1.80;;
50495;SDS011;38806;51.554;5.704;2023-06-04T00:25:45;4.00;;;2.05;;
50495;SDS011;38806;51.554;5.704;2023-06-04T00:27:48;6.32;;;2.67;;
50495;SDS011;38806;51.554;5.704;2023-06-04T00:29:51;5.63;;;2.00;;
50495;SDS011;38806;51.554;5.704;2023-06-04T00:31:58;3.83;;;1.88;;
50495;SDS011;38806;51.554;5.704;2023-06-04T00:33:58;6.28;;;3.22;;
50495;SDS011;38806;51.554;5.704;2023-06-04T00:35:58;7.80;;;2.42;;
50495;SDS011;38806;51.554;5.704;2023-06-04T00:37:59;7.70;;;2.80;;
50495;SDS011;38806;51.554;5.704;2023-06-04T00:39:59;4.50;;;2.10;;
50495;SDS011;38806;51.554;5.704;2023-06-04T00:42:00;6.70;;;2.17;;
50495;SDS011;38806;51.554;5.704;2023-06-04T00:44:00;4.22;;;2.38;;
50495;SDS011;38806;51.554;5.704;2023-06-04T00:46:05;4.97;;;2.60;;
50495;SDS011;38806;51.554;5.704;2023-06-04T00:48:06;4.72;;;2.33;;
50495;SDS011;38806;51.554;5.704;2023-06-04T00:50:06;6.85;;;3.22;;
50495;SDS011;38806;51.554;5.704;2023-06-04T00:52:08;3.78;;;2.28;;
50495;SDS011;38806;51.554;5.704;2023-06-04T00:54:08;6.30;;;1.80;;
50495;SDS011;38806;51.554;5.704;2023-06-04T00:56:09;4.40;;;1.90;;
50495;SDS011;38806;51.554;5.704;2023-06-04T00:58:09;3.92;;;2.28;;
50495;SDS011;38806;51.554;5.704;2023-06-04T01:00:10;6.47;;;2.38;;
50495;SDS011;38806;51.554;5.704;2023-06-04T01:02:23;3.53;;;1.95;;
50495;SDS011;38806;51.554;5.704;2023-06-04T01:04:42;5.70;;;2.30;;
50495;SDS011;38806;51.554;5.704;2023-06-04T01:06:49;5.43;;;2.95;;
50495;SDS011;38806;51.554;5.704;2023-06-04T01:08:50;4.93;;;1.95;;
50495;SDS011;38806;51.554;5.704;2023-06-04T01:11:03;5.07;;;1.98;;
50495;SDS011;38806;51.554;5.704;2023-06-04T01:13:03;5.43;;;1.92;;
50495;SDS011;38806;51.554;5.704;2023-06-04T01:15:04;7.18;;;2.17;;
50495;SDS011;38806;51.554;5.704;2023-06-04T01:22:03;4.82;;;2.13;;
50495;SDS011;38806;51.554;5.704;2023-06-04T01:24:04;6.88;;;2.53;;
50495;SDS011;38806;51.554;5.704;2023-06-04T01:26:09;5.05;;;2.10;;
50495;SDS011;38806;51.554;5.704;2023-06-04T01:28:13;4.88;;;2.58;;
50495;SDS011;38806;51.554;5.704;2023-06-04T01:32:45;6.03;;;2.55;;
50495;SDS011;38806;51.554;5.704;2023-06-04T01:34:46;7.18;;;2.70;;
50495;SDS011;38806;51.554;5.704;2023-06-04T01:36:47;6.65;;;2.75;;
50495;SDS011;38806;51.554;5.704;2023-06-04T01:38:47;8.63;;;4.00;;
50495;SDS011;38806;51.554;5.704;2023-06-04T01:40:47;6.15;;;2.95;;
50495;SDS011;38806;51.554;5.704;2023-06-04T01:42:48;5.15;;;2.30;;
50495;SDS011;38806;51.554;5.704;2023-06-04T01:44:48;6.70;;;2.60;;
50495;SDS011;38806;51.554;5.704;2023-06-04T01:46:48;10.00;;;2.17;;
50495;SDS011;38806;51.554;5.704;2023-06-04T01:48:55;7.55;;;2.42;;
50495;SDS011;38806;51.554;5.704;2023-06-04T01:50:55;5.72;;;3.08;;
50495;SDS011;38806;51.554;5.704;2023-06-04T01:53:02;4.47;;;2.05;;
50495;SDS011;38806;51.554;5.704;2023-06-04T01:55:09;5.05;;;2.58;;
50495;SDS011;38806;51.554;5.704;2023-06-04T01:57:30;3.92;;;2.08;;
50495;SDS011;38806;51.554;5.704;2023-06-04T02:01:38;6.43;;;2.65;;
50495;SDS011;38806;51.554;5.704;2023-06-04T02:03:38;4.97;;;2.63;;
50495;SDS011;38806;51.554;5.704;2023-06-04T02:05:40;6.25;;;2.53;;
50495;SDS011;38806;51.554;5.704;2023-06-04T02:07:41;5.97;;;2.65;;
50495;SDS011;38806;51.554;5.704;2023-06-04T02:09:42;8.00;;;2.70;;
50495;SDS011;38806;51.554;5.704;2023-06-04T02:11:42;5.07;;;2.70;;
50495;SDS011;38806;51.554;5.704;2023-06-04T02:13:42;6.75;;;2.63;;
50495;SDS011;38806;51.554;5.704;2023-06-04T02:15:43;6.30;;;2.60;;
50495;SDS011;38806;51.554;5.704;2023-06-04T02:17:43;6.60;;;2.70;;
50495;SDS011;38806;51.554;5.704;2023-06-04T02:19:48;6.90;;;2.50;;
50495;SDS011;38806;51.554;5.704;2023-06-04T02:21:52;5.45;;;2.75;;
50495;SDS011;38806;51.554;5.704;2023-06-04T02:23:53;4.90;;;2.55;;
50495;SDS011;38806;51.554;5.704;2023-06-04T02:25:53;5.40;;;2.92;;
50495;SDS011;38806;51.554;5.704;2023-06-04T02:27:53;9.43;;;4.15;;
50495;SDS011;38806;51.554;5.704;2023-06-04T02:29:54;8.50;;;3.45;;
50495;SDS011;38806;51.554;5.704;2023-06-04T02:31:54;4.03;;;2.03;;
50495;SDS011;38806;51.554;5.704;2023-06-04T02:33:55;6.00;;;2.40;;
50495;SDS011;38806;51.554;5.704;2023-06-04T02:35:55;5.32;;;2.50;;
50495;SDS011;38806;51.554;5.704;2023-06-04T02:37:56;5.47;;;2.25;;
50495;SDS011;38806;51.554;5.704;2023-06-04T02:40:13;8.70;;;3.08;;
50495;SDS011;38806;51.554;5.704;2023-06-04T02:42:19;5.68;;;3.72;;
50495;SDS011;38806;51.554;5.704;2023-06-04T02:44:25;6.80;;;3.40;;
50495;SDS011;38806;51.554;5.704;2023-06-04T02:46:26;6.85;;;2.50;;
50495;SDS011;38806;51.554;5.704;2023-06-04T02:48:26;4.95;;;3.20;;
50495;SDS011;38806;51.554;5.704;2023-06-04T02:50:26;6.05;;;3.10;;
50495;SDS011;38806;51.554;5.704;2023-06-04T02:52:27;6.07;;;3.53;;
50495;SDS011;38806;51.554;5.704;2023-06-04T02:54:27;6.43;;;2.60;;
50495;SDS011;38806;51.554;5.704;2023-06-04T02:56:27;9.18;;;3.22;;
50495;SDS011;38806;51.554;5.704;2023-06-04T02:58:27;8.35;;;2.97;;
50495;SDS011;38806;51.554;5.704;2023-06-04T03:00:28;6.00;;;3.15;;
50495;SDS011;38806;51.554;5.704;2023-06-04T03:02:29;6.10;;;3.03;;
50495;SDS011;38806;51.554;5.704;2023-06-04T03:04:29;9.15;;;3.78;;
50495;SDS011;38806;51.554;5.704;2023-06-04T03:06:34;8.02;;;3.40;;
50495;SDS011;38806;51.554;5.704;2023-06-04T03:08:34;5.15;;;2.47;;
50495;SDS011;38806;51.554;5.704;2023-06-04T03:10:35;5.28;;;2.50;;
50495;SDS011;38806;51.554;5.704;2023-06-04T03:12:35;6.13;;;2.88;;
50495;SDS011;38806;51.554;5.704;2023-06-04T03:14:35;6.45;;;4.07;;
50495;SDS011;38806;51.554;5.704;2023-06-04T03:16:39;8.68;;;4.10;;
50495;SDS011;38806;51.554;5.704;2023-06-04T03:18:40;9.10;;;3.38;;
50495;SDS011;38806;51.554;5.704;2023-06-04T03:20:40;5.57;;;3.20;;
50495;SDS011;38806;51.554;5.704;2023-06-04T03:22:47;7.50;;;3.00;;
50495;SDS011;38806;51.554;5.704;2023-06-04T03:24:47;8.32;;;3.30;;
50495;SDS011;38806;51.554;5.704;2023-06-04T03:26:47;6.47;;;3.05;;
50495;SDS011;38806;51.554;5.704;2023-06-04T03:28:48;7.43;;;3.88;;
50495;SDS011;38806;51.554;5.704;2023-06-04T03:30:48;8.85;;;3.55;;
50495;SDS011;38806;51.554;5.704;2023-06-04T03:32:48;8.50;;;3.83;;
50495;SDS011;38806;51.554;5.704;2023-06-04T03:34:48;10.85;;;3.72;;
50495;SDS011;38806;51.554;5.704;2023-06-04T03:36:49;7.68;;;3.55;;
50495;SDS011;38806;51.554;5.704;2023-06-04T03:38:49;6.95;;;3.65;;
50495;SDS011;38806;51.554;5.704;2023-06-04T03:40:50;7.32;;;3.63;;
50495;SDS011;38806;51.554;5.704;2023-06-04T03:42:52;9.98;;;4.28;;
50495;SDS011;38806;51.554;5.704;2023-06-04T03:44:53;8.30;;;3.20;;
50495;SDS011;38806;51.554;5.704;2023-06-04T03:46:53;9.60;;;4.07;;
50495;SDS011;38806;51.554;5.704;2023-06-04T03:48:54;7.95;;;3.72;;
50495;SDS011;38806;51.554;5.704;2023-06-04T03:50:54;6.97;;;3.90;;
50495;SDS011;38806;51.554;5.704;2023-06-04T03:52:55;7.57;;;4.15;;
50495;SDS011;38806;51.554;5.704;2023-06-04T03:54:55;9.55;;;4.07;;
50495;SDS011;38806;51.554;5.704;2023-06-04T03:56:56;9.68;;;5.13;;
50495;SDS011;38806;51.554;5.704;2023-06-04T03:59:02;8.63;;;4.13;;
50495;SDS011;38806;51.554;5.704;2023-06-04T04:01:06;8.27;;;4.38;;
50495;SDS011;38806;51.554;5.704;2023-06-04T04:03:06;7.20;;;3.88;;
50495;SDS011;38806;51.554;5.704;2023-06-04T04:05:09;5.97;;;3.22;;
50495;SDS011;38806;51.554;5.704;2023-06-04T04:07:09;8.38;;;3.55;;
50495;SDS011;38806;51.554;5.704;2023-06-04T04:09:16;9.32;;;4.05;;
50495;SDS011;38806;51.554;5.704;2023-06-04T04:11:22;7.10;;;3.47;;
50495;SDS011;38806;51.554;5.704;2023-06-04T04:13:29;7.57;;;4.72;;
50495;SDS011;38806;51.554;5.704;2023-06-04T04:15:29;7.80;;;3.88;;
50495;SDS011;38806;51.554;5.704;2023-06-04T04:17:29;10.35;;;4.72;;
50495;SDS011;38806;51.554;5.704;2023-06-04T04:19:30;7.50;;;4.22;;
50495;SDS011;38806;51.554;5.704;2023-06-04T04:21:34;8.00;;;3.55;;
50495;SDS011;38806;51.554;5.704;2023-06-04T04:23:37;9.02;;;4.05;;
50495;SDS011;38806;51.554;5.704;2023-06-04T04:25:40;7.72;;;3.15;;
50495;SDS011;38806;51.554;5.704;2023-06-04T04:27:41;8.77;;;4.47;;
50495;SDS011;38806;51.554;5.704;2023-06-04T04:29:44;6.35;;;3.80;;
50495;SDS011;38806;51.554;5.704;2023-06-04T04:31:47;10.02;;;4.00;;
50495;SDS011;38806;51.554;5.704;2023-06-04T04:33:48;10.77;;;3.72;;
50495;SDS011;38806;51.554;5.704;2023-06-04T04:35:51;6.50;;;4.32;;
50495;SDS011;38806;51.554;5.704;2023-06-04T04:37:52;8.20;;;4.07;;
50495;SDS011;38806;51.554;5.704;2023-06-04T04:39:53;9.50;;;4.30;;
50495;SDS011;38806;51.554;5.704;2023-06-04T04:41:54;7.22;;;4.10;;
50495;SDS011;38806;51.554;5.704;2023-06-04T04:44:04;8.15;;;3.65;;
50495;SDS011;38806;51.554;5.704;2023-06-04T04:46:05;13.40;;;4.60;;
50495;SDS011;38806;51.554;5.704;2023-06-04T04:48:11;7.65;;;3.65;;
50495;SDS011;38806;51.554;5.704;2023-06-04T04:50:12;8.40;;;4.35;;
50495;SDS011;38806;51.554;5.704;2023-06-04T04:52:12;6.85;;;3.90;;
50495;SDS011;38806;51.554;5.704;2023-06-04T04:54:19;5.88;;;3.38;;
50495;SDS011;38806;51.554;5.704;2023-06-04T04:56:19;8.52;;;4.13;;
50495;SDS011;38806;51.554;5.704;2023-06-04T04:58:26;7.25;;;4.30;;
50495;SDS011;38806;51.554;5.704;2023-06-04T05:00:28;9.10;;;3.75;;
50495;SDS011;38806;51.554;5.704;2023-06-04T05:02:35;7.70;;;3.72;;
50495;SDS011;38806;51.554;5.704;2023-06-04T05:04:38;9.55;;;4.15;;
50495;SDS011;38806;51.554;5.704;2023-06-04T05:06:41;7.38;;;3.30;;
50495;SDS011;38806;51.554;5.704;2023-06-04T05:08:45;7.00;;;4.38;;
50495;SDS011;38806;51.554;5.704;2023-06-04T05:10:49;6.43;;;4.00;;
50495;SDS011;38806;51.554;5.704;2023-06-04T05:12:58;7.72;;;3.67;;
50495;SDS011;38806;51.554;5.704;2023-06-04T05:14:58;6.32;;;3.05;;
50495;SDS011;38806;51.554;5.704;2023-06-04T05:16:59;6.43;;;3.95;;
50495;SDS011;38806;51.554;5.704;2023-06-04T05:18:59;8.15;;;3.47;;
50495;SDS011;38806;51.554;5.704;2023-06-04T05:21:03;6.70;;;3.45;;
50495;SDS011;38806;51.554;5.704;2023-06-04T05:23:06;7.18;;;3.33;;
50495;SDS011;38806;51.554;5.704;2023-06-04T05:25:07;7.35;;;3.53;;
50495;SDS011;38806;51.554;5.704;2023-06-04T05:27:08;5.88;;;3.70;;
50495;SDS011;38806;51.554;5.704;2023-06-04T05:29:09;6.82;;;3.47;;
50495;SDS011;38806;51.554;5.704;2023-06-04T05:31:09;5.93;;;2.80;;
50495;SDS011;38806;51.554;5.704;2023-06-04T05:33:19;7.75;;;2.97;;
50495;SDS011;38806;51.554;5.704;2023-06-04T05:35:20;9.25;;;3.85;;
50495;SDS011;38806;51.554;5.704;2023-06-04T05:37:20;5.28;;;3.03;;
50495;SDS011;38806;51.554;5.704;2023-06-04T05:39:21;5.10;;;3.08;;
50495;SDS011;38806;51.554;5.704;2023-06-04T05:41:26;5.28;;;2.90;;
50495;SDS011;38806;51.554;5.704;2023-06-04T05:43:33;5.55;;;3.10;;
50495;SDS011;38806;51.554;5.704;2023-06-04T05:45:36;6.78;;;3.33;;
50495;SDS011;38806;51.554;5.704;2023-06-04T05:47:43;6.78;;;3.72;;
50495;SDS011;38806;51.554;5.704;2023-06-04T05:49:43;7.28;;;3.28;;
50495;SDS011;38806;51.554;5.704;2023-06-04T05:51:50;8.20;;;3.25;;
50495;SDS011;38806;51.554;5.704;2023-06-04T05:53:50;5.55;;;3.20;;
50495;SDS011;38806;51.554;5.704;2023-06-04T05:55:50;11.38;;;3.92;;
50495;SDS011;38806;51.554;5.704;2023-06-04T05:57:51;8.70;;;3.35;;
50495;SDS011;38806;51.554;5.704;2023-06-04T05:59:51;7.18;;;3.08;;
50495;SDS011;38806;51.554;5.704;2023-06-04T06:01:52;5.18;;;3.05;;
50495;SDS011;38806;51.554;5.704;2023-06-04T06:03:52;5.78;;;3.33;;
50495;SDS011;38806;51.554;5.704;2023-06-04T06:05:53;5.47;;;3.00;;
50495;SDS011;38806;51.554;5.704;2023-06-04T06:07:54;8.20;;;3.50;;
50495;SDS011;38806;51.554;5.704;2023-06-04T06:09:56;7.70;;;2.67;;
50495;SDS011;38806;51.554;5.704;2023-06-04T06:11:56;9.68;;;3.47;;
50495;SDS011;38806;51.554;5.704;2023-06-04T06:13:56;5.63;;;3.30;;
50495;SDS011;38806;51.554;5.704;2023-06-04T06:15:57;7.80;;;3.30;;
50495;SDS011;38806;51.554;5.704;2023-06-04T06:18:03;7.95;;;4.32;;
50495;SDS011;38806;51.554;5.704;2023-06-04T06:20:06;6.82;;;2.80;;
50495;SDS011;38806;51.554;5.704;2023-06-04T06:22:08;6.57;;;2.90;;
50495;SDS011;38806;51.554;5.704;2023-06-04T06:24:14;5.97;;;2.67;;
50495;SDS011;38806;51.554;5.704;2023-06-04T06:26:20;5.82;;;2.67;;
50495;SDS011;38806;51.554;5.704;2023-06-04T06:28:28;11.55;;;3.25;;
50495;SDS011;38806;51.554;5.704;2023-06-04T06:30:34;7.57;;;2.63;;
50495;SDS011;38806;51.554;5.704;2023-06-04T06:32:37;8.23;;;2.65;;
50495;SDS011;38806;51.554;5.704;2023-06-04T06:34:38;6.38;;;2.95;;
50495;SDS011;38806;51.554;5.704;2023-06-04T06:36:38;7.85;;;2.70;;
50495;SDS011;38806;51.554;5.704;2023-06-04T06:38:39;6.05;;;3.42;;
50495;SDS011;38806;51.554;5.704;2023-06-04T06:40:40;5.25;;;2.80;;
50495;SDS011;38806;51.554;5.704;2023-06-04T06:42:53;4.97;;;2.33;;
50495;SDS011;38806;51.554;5.704;2023-06-04T06:44:53;5.30;;;3.00;;
50495;SDS011;38806;51.554;5.704;2023-06-04T06:46:56;5.50;;;2.25;;
50495;SDS011;38806;51.554;5.704;2023-06-04T06:48:59;6.10;;;2.35;;
50495;SDS011;38806;51.554;5.704;2023-06-04T06:51:00;7.32;;;2.53;;
50495;SDS011;38806;51.554;5.704;2023-06-04T06:53:00;7.72;;;3.15;;
50495;SDS011;38806;51.554;5.704;2023-06-04T06:55:01;4.88;;;2.55;;
50495;SDS011;38806;51.554;5.704;2023-06-04T06:57:07;5.53;;;3.33;;
50495;SDS011;38806;51.554;5.704;2023-06-04T06:59:08;6.72;;;3.38;;
50495;SDS011;38806;51.554;5.704;2023-06-04T07:01:09;4.03;;;2.33;;
50495;SDS011;38806;51.554;5.704;2023-06-04T07:03:09;5.93;;;2.28;;
50495;SDS011;38806;51.554;5.704;2023-06-04T07:05:10;6.70;;;2.80;;
50495;SDS011;38806;51.554;5.704;2023-06-04T07:07:21;3.47;;;1.92;;
50495;SDS011;38806;51.554;5.704;2023-06-04T07:09:27;5.07;;;2.08;;
50495;SDS011;38806;51.554;5.704;2023-06-04T07:11:36;4.75;;;2.78;;
50495;SDS011;38806;51.554;5.704;2023-06-04T07:13:43;5.43;;;2.20;;
50495;SDS011;38806;51.554;5.704;2023-06-04T07:15:43;6.95;;;2.35;;
50495;SDS011;38806;51.554;5.704;2023-06-04T07:17:43;5.43;;;2.95;;
50495;SDS011;38806;51.554;5.704;2023-06-04T07:19:43;6.10;;;2.10;;
50495;SDS011;38806;51.554;5.704;2023-06-04T07:21:44;5.03;;;2.00;;
50495;SDS011;38806;51.554;5.704;2023-06-04T07:23:44;4.32;;;2.30;;
50495;SDS011;38806;51.554;5.704;2023-06-04T07:25:47;5.35;;;2.15;;
50495;SDS011;38806;51.554;5.704;2023-06-04T07:27:48;5.13;;;2.30;;
50495;SDS011;38806;51.554;5.704;2023-06-04T07:29:48;10.85;;;2.63;;
50495;SDS011;38806;51.554;5.704;2023-06-04T07:31:48;4.75;;;2.13;;
50495;SDS011;38806;51.554;5.704;2023-06-04T07:33:49;5.72;;;2.35;;
50495;SDS011;38806;51.554;5.704;2023-06-04T07:35:55;4.80;;;2.22;;
50495;SDS011;38806;51.554;5.704;2023-06-04T07:38:02;8.85;;;3.88;;
50495;SDS011;38806;51.554;5.704;2023-06-04T07:40:03;5.05;;;2.00;;
50495;SDS011;38806;51.554;5.704;2023-06-04T07:42:06;4.90;;;2.30;;
50495;SDS011;38806;51.554;5.704;2023-06-04T07:44:13;3.65;;;2.10;;
50495;SDS011;38806;51.554;5.704;2023-06-04T07:46:16;5.45;;;2.45;;
50495;SDS011;38806;51.554;5.704;2023-06-04T07:48:18;4.65;;;2.03;;
50495;SDS011;38806;51.554;5.704;2023-06-04T07:50:19;3.47;;;1.73;;
50495;SDS011;38806;51.554;5.704;2023-06-04T07:52:19;8.02;;;2.35;;
50495;SDS011;38806;51.554;5.704;2023-06-04T07:54:26;4.22;;;2.13;;
50495;SDS011;38806;51.554;5.704;2023-06-04T07:56:32;2.50;;;1.35;;
50495;SDS011;38806;51.554;5.704;2023-06-04T07:58:36;3.67;;;1.88;;
50495;SDS011;38806;51.554;5.704;2023-06-04T08:00:36;3.15;;;1.40;;
50495;SDS011;38806;51.554;5.704;2023-06-04T08:02:36;4.07;;;1.70;;
50495;SDS011;38806;51.554;5.704;2023-06-04T08:04:49;5.07;;;1.73;;
50495;SDS011;38806;51.554;5.704;2023-06-04T08:06:56;2.90;;;1.58;;
50495;SDS011;38806;51.554;5.704;2023-06-04T08:09:03;2.40;;;1.60;;
50495;SDS011;38806;51.554;5.704;2023-06-04T08:11:06;3.95;;;1.50;;
50495;SDS011;38806;51.554;5.704;2023-06-04T08:13:07;5.05;;;2.30;;
50495;SDS011;38806;51.554;5.704;2023-06-04T08:15:08;3.45;;;1.70;;
50495;SDS011;38806;51.554;5.704;2023-06-04T08:17:09;4.28;;;2.38;;
50495;SDS011;38806;51.554;5.704;2023-06-04T08:19:09;4.53;;;2.00;;
50495;SDS011;38806;51.554;5.704;2023-06-04T08:21:10;3.25;;;1.38;;
50495;SDS011;38806;51.554;5.704;2023-06-04T08:23:23;2.65;;;1.20;;
50495;SDS011;38806;51.554;5.704;2023-06-04T08:25:26;3.30;;;2.15;;
50495;SDS011;38806;51.554;5.704;2023-06-04T08:27:33;3.40;;;1.52;;
50495;SDS011;38806;51.554;5.704;2023-06-04T08:29:34;4.40;;;1.88;;
50495;SDS011;38806;51.554;5.704;2023-06-04T08:31:38;4.93;;;2.28;;
50495;SDS011;38806;51.554;5.704;2023-06-04T08:33:49;3.78;;;1.38;;
50495;SDS011;38806;51.554;5.704;2023-06-04T08:35:49;2.60;;;1.45;;
50495;SDS011;38806;51.554;5.704;2023-06-04T08:37:50;4.35;;;1.92;;
50495;SDS011;38806;51.554;5.704;2023-06-04T08:39:50;4.00;;;1.98;;
50495;SDS011;38806;51.554;5.704;2023-06-04T08:41:51;3.45;;;1.92;;
50495;SDS011;38806;51.554;5.704;2023-06-04T08:43:53;5.45;;;1.60;;
50495;SDS011;38806;51.554;5.704;2023-06-04T08:45:58;4.82;;;1.63;;
50495;SDS011;38806;51.554;5.704;2023-06-04T08:48:09;4.15;;;1.38;;
50495;SDS011;38806;51.554;5.704;2023-06-04T08:50:16;4.78;;;1.73;;
50495;SDS011;38806;51.554;5.704;2023-06-04T08:52:17;3.10;;;1.50;;
50495;SDS011;38806;51.554;5.704;2023-06-04T08:54:27;1.45;;;0.90;;
50495;SDS011;38806;51.554;5.704;2023-06-04T08:56:34;1.92;;;1.33;;
50495;SDS011;38806;51.554;5.704;2023-06-04T08:58:38;2.08;;;1.10;;
50495;SDS011;38806;51.554;5.704;2023-06-04T09:00:40;4.78;;;1.30;;
50495;SDS011;38806;51.554;5.704;2023-06-04T09:02:40;3.53;;;1.20;;
50495;SDS011;38806;51.554;5.704;2023-06-04T09:04:41;1.33;;;0.88;;
50495;SDS011;38806;51.554;5.704;2023-06-04T09:06:48;3.08;;;1.00;;
50495;SDS011;38806;51.554;5.704;2023-06-04T09:08:49;1.20;;;0.70;;
50495;SDS011;38806;51.554;5.704;2023-06-04T09:10:49;1.67;;;0.73;;
50495;SDS011;38806;51.554;5.704;2023-06-04T09:13:05;2.05;;;0.93;;
50495;SDS011;38806;51.554;5.704;2023-06-04T09:15:06;1.73;;;0.98;;
50495;SDS011;38806;51.554;5.704;2023-06-04T09:17:07;1.73;;;1.08;;
50495;SDS011;38806;51.554;5.704;2023-06-04T09:19:07;1.95;;;1.25;;
50495;SDS011;38806;51.554;5.704;2023-06-04T09:21:08;2.17;;;1.08;;
50495;SDS011;38806;51.554;5.704;2023-06-04T09:23:12;2.58;;;0.60;;
50495;SDS011;38806;51.554;5.704;2023-06-04T09:25:20;4.68;;;1.88;;
50495;SDS011;38806;51.554;5.704;2023-06-04T09:27:21;1.85;;;0.95;;
50495;SDS011;38806;51.554;5.704;2023-06-04T09:29:23;2.63;;;0.70;;
50495;SDS011;38806;51.554;5.704;2023-06-04T09:31:23;2.50;;;0.90;;
50495;SDS011;38806;51.554;5.704;2023-06-04T09:33:27;3.78;;;0.90;;
50495;SDS011;38806;51.554;5.704;2023-06-04T09:35:27;2.83;;;0.82;;
50495;SDS011;38806;51.554;5.704;2023-06-04T09:37:34;3.25;;;1.10;;
50495;SDS011;38806;51.554;5.704;2023-06-04T09:39:35;1.98;;;1.20;;
50495;SDS011;38806;51.554;5.704;2023-06-04T09:41:41;3.78;;;1.27;;
50495;SDS011;38806;51.554;5.704;2023-06-04T09:43:42;3.55;;;1.08;;
50495;SDS011;38806;51.554;5.704;2023-06-04T09:45:43;3.15;;;0.82;;
50495;SDS011;38806;51.554;5.704;2023-06-04T09:47:44;3.03;;;1.05;;
50495;SDS011;38806;51.554;5.704;2023-06-04T09:49:46;2.72;;;0.85;;
50495;SDS011;38806;51.554;5.704;2023-06-04T09:51:47;1.55;;;0.93;;
50495;SDS011;38806;51.554;5.704;2023-06-04T09:53:55;2.67;;;0.77;;
50495;SDS011;38806;51.554;5.704;2023-06-04T09:56:02;1.65;;;0.82;;
50495;SDS011;38806;51.554;5.704;2023-06-04T09:58:06;1.95;;;0.98;;
50495;SDS011;38806;51.554;5.704;2023-06-04T10:00:07;5.10;;;1.80;;
50495;SDS011;38806;51.554;5.704;2023-06-04T10:02:21;2.30;;;1.02;;
50495;SDS011;38806;51.554;5.704;2023-06-04T10:04:22;1.92;;;0.85;;
50495;SDS011;38806;51.554;5.704;2023-06-04T10:06:22;1.85;;;0.77;;
50495;SDS011;38806;51.554;5.704;2023-06-04T10:08:29;2.25;;;0.68;;
50495;SDS011;38806;51.554;5.704;2023-06-04T10:10:36;1.70;;;0.85;;
50495;SDS011;38806;51.554;5.704;2023-06-04T10:12:38;1.58;;;0.90;;
50495;SDS011;38806;51.554;5.704;2023-06-04T10:14:41;4.13;;;1.05;;
50495;SDS011;38806;51.554;5.704;2023-06-04T10:16:47;3.28;;;1.13;;
50495;SDS011;38806;51.554;5.704;2023-06-04T10:18:52;1.77;;;0.70;;
50495;SDS011;38806;51.554;5.704;2023-06-04T10:21:04;2.10;;;0.80;;
50495;SDS011;38806;51.554;5.704;2023-06-04T10:23:05;3.95;;;1.00;;
50495;SDS011;38806;51.554;5.704;2023-06-04T10:25:06;2.90;;;1.50;;
50495;SDS011;38806;51.554;5.704;2023-06-04T10:27:10;3.22;;;1.05;;
50495;SDS011;38806;51.554;5.704;2023-06-04T10:29:11;2.92;;;1.25;;
50495;SDS011;38806;51.554;5.704;2023-06-04T10:31:12;2.78;;;0.68;;
50495;SDS011;38806;51.554;5.704;2023-06-04T10:33:14;2.95;;;1.45;;
50495;SDS011;38806;51.554;5.704;2023-06-04T10:35:33;2.80;;;0.63;;
50495;SDS011;38806;51.554;5.704;2023-06-04T10:37:34;1.52;;;0.77;;
50495;SDS011;38806;51.554;5.704;2023-06-04T10:39:40;1.38;;;0.90;;
50495;SDS011;38806;51.554;5.704;2023-06-04T10:42:00;3.25;;;1.00;;
50495;SDS011;38806;51.554;5.704;2023-06-04T10:44:09;1.95;;;0.80;;
50495;SDS011;38806;51.554;5.704;2023-06-04T10:46:13;3.20;;;0.73;;
50495;SDS011;38806;51.554;5.704;2023-06-04T10:48:14;1.65;;;0.75;;
50495;SDS011;38806;51.554;5.704;2023-06-04T10:50:14;2.95;;;1.30;;
50495;SDS011;38806;51.554;5.704;2023-06-04T10:52:15;1.85;;;1.02;;
50495;SDS011;38806;51.554;5.704;2023-06-04T10:54:21;1.80;;;0.90;;
50495;SDS011;38806;51.554;5.704;2023-06-04T10:56:28;2.00;;;0.90;;
50495;SDS011;38806;51.554;5.704;2023-06-04T10:58:44;3.33;;;0.85;;
50495;SDS011;38806;51.554;5.704;2023-06-04T11:00:45;3.17;;;1.08;;
50495;SDS011;38806;51.554;5.704;2023-06-04T11:02:53;3.63;;;0.90;;
50495;SDS011;38806;51.554;5.704;2023-06-04T11:05:06;4.15;;;1.70;;
50495;SDS011;38806;51.554;5.704;2023-06-04T11:07:15;3.20;;;0.90;;
50495;SDS011;38806;51.554;5.704;2023-06-04T11:09:15;2.80;;;1.17;;
50495;SDS011;38806;51.554;5.704;2023-06-04T11:11:18;3.03;;;1.05;;
50495;SDS011;38806;51.554;5.704;2023-06-04T11:13:24;2.03;;;0.77;;
50495;SDS011;38806;51.554;5.704;2023-06-04T11:15:36;1.63;;;0.98;;
50495;SDS011;38806;51.554;5.704;2023-06-04T11:17:37;1.98;;;0.88;;
50495;SDS011;38806;51.554;5.704;2023-06-04T11:19:38;2.05;;;0.88;;
50495;SDS011;38806;51.554;5.704;2023-06-04T11:21:38;1.95;;;1.08;;
50495;SDS011;38806;51.554;5.704;2023-06-04T11:23:39;4.35;;;1.45;;
50495;SDS011;38806;51.554;5.704;2023-06-04T11:25:45;5.28;;;1.10;;
50495;SDS011;38806;51.554;5.704;2023-06-04T11:27:48;2.38;;;0.85;;
50495;SDS011;38806;51.554;5.704;2023-06-04T11:29:50;2.88;;;1.13;;
50495;SDS011;38806;51.554;5.704;2023-06-04T11:31:51;3.42;;;1.00;;
50495;SDS011;38806;51.554;5.704;2023-06-04T11:33:52;2.67;;;1.23;;
50495;SDS011;38806;51.554;5.704;2023-06-04T11:35:58;3.80;;;1.38;;
50495;SDS011;38806;51.554;5.704;2023-06-04T11:38:04;3.28;;;0.93;;
50495;SDS011;38806;51.554;5.704;2023-06-04T11:40:17;2.90;;;1.15;;
50495;SDS011;38806;51.554;5.704;2023-06-04T11:42:18;2.92;;;1.30;;
50495;SDS011;38806;51.554;5.704;2023-06-04T11:44:19;4.47;;;1.52;;
50495;SDS011;38806;51.554;5.704;2023-06-04T11:46:20;6.65;;;1.67;;
50495;SDS011;38806;51.554;5.704;2023-06-04T11:48:21;4.03;;;1.30;;
50495;SDS011;38806;51.554;5.704;2023-06-04T11:50:23;3.45;;;1.90;;
50495;SDS011;38806;51.554;5.704;2023-06-04T11:52:23;2.38;;;0.98;;
50495;SDS011;38806;51.554;5.704;2023-06-04T11:54:24;2.15;;;1.08;;
50495;SDS011;38806;51.554;5.704;2023-06-04T11:56:24;2.72;;;1.10;;
50495;SDS011;38806;51.554;5.704;2023-06-04T11:58:32;3.38;;;1.58;;
50495;SDS011;38806;51.554;5.704;2023-06-04T12:00:39;2.38;;;1.40;;
50495;SDS011;38806;51.554;5.704;2023-06-04T12:02:48;5.03;;;1.30;;
50495;SDS011;38806;51.554;5.704;2023-06-04T12:04:48;3.28;;;0.98;;
50495;SDS011;38806;51.554;5.704;2023-06-04T12:06:52;2.77;;;1.20;;
50495;SDS011;38806;51.554;5.704;2023-06-04T12:08:54;7.68;;;1.50;;
50495;SDS011;38806;51.554;5.704;2023-06-04T12:10:54;2.85;;;1.23;;
50495;SDS011;38806;51.554;5.704;2023-06-04T12:12:55;5.38;;;2.22;;
50495;SDS011;38806;51.554;5.704;2023-06-04T12:15:04;4.22;;;1.10;;
50495;SDS011;38806;51.554;5.704;2023-06-04T12:17:06;2.85;;;0.90;;
50495;SDS011;38806;51.554;5.704;2023-06-04T12:19:07;2.28;;;1.02;;
50495;SDS011;38806;51.554;5.704;2023-06-04T12:22:08;3.35;;;1.40;;
50495;SDS011;38806;51.554;5.704;2023-06-04T12:23:38;2.60;;;1.08;;
50495;SDS011;38806;51.554;5.704;2023-06-04T12:25:38;3.60;;;1.30;;
50495;SDS011;38806;51.554;5.704;2023-06-04T12:27:47;3.40;;;1.52;;
50495;SDS011;38806;51.554;5.704;2023-06-04T12:29:58;2.30;;;0.90;;
50495;SDS011;38806;51.554;5.704;2023-06-04T12:32:09;4.38;;;1.20;;